Time;durP1;ratioP1;P1;durP2;ratioP2;P2;SDS_P1;SDS_P2;PMS_P1;PMS_P2;Temp;Humidity;BMP_temperature;BMP_pressure;BME280_temperature;BME280_humidity;BME280_pressure;Samples;Min_cycle;Max_cycle;Signal;HPM_P1;HPM_P2
2021/06/25 00:00:07;;;;;;;5.97;1.75;;;;;;;21.70;70.25;99602.29;1714436;82;21069;-54
2021/06/25 00:02:34;;;;;;;8.58;1.87;;;;;;;21.68;70.32;99598.86;1718165;82;21375;-54
2021/06/25 00:05:00;;;;;;;9.10;1.27;;;;;;;21.68;70.39;99600.73;1714560;82;21561;-54
2021/06/25 00:07:27;;;;;;;8.03;1.05;;;;;;;21.67;70.40;99598.50;1713452;82;21050;-55
2021/06/25 00:09:53;;;;;;;6.10;1.72;;;;;;;21.67;70.36;99594.39;1715770;82;21073;-53
2021/06/25 00:12:19;;;;;;;9.93;1.42;;;;;;;21.67;70.40;99599.87;1716976;82;21414;-55
2021/06/25 00:14:45;;;;;;;11.85;1.72;;;;;;;21.66;70.39;99598.14;1716620;82;22184;-55
2021/06/25 00:17:12;;;;;;;7.33;1.50;;;;;;;21.66;70.51;99595.40;1715612;82;21126;-54
2021/06/25 00:19:38;;;;;;;5.50;1.20;;;;;;;21.67;70.57;99594.89;1709979;82;21094;-54
2021/06/25 00:22:05;;;;;;;7.92;1.17;;;;;;;21.67;70.65;99601.74;1717291;82;21061;-55
2021/06/25 00:24:32;;;;;;;9.70;1.70;;;;;;;21.66;70.66;99610.46;1714852;82;21114;-54
2021/06/25 00:26:58;;;;;;;9.03;1.37;;;;;;;21.65;70.72;99603.25;1720287;82;21041;-54
2021/06/25 00:29:25;;;;;;;7.97;1.57;;;;;;;21.65;70.70;99605.13;1716408;81;21827;-54
2021/06/25 00:31:51;;;;;;;10.85;1.27;;;;;;;21.65;70.70;99606.50;1715593;82;21121;-54
2021/06/25 00:34:18;;;;;;;6.67;1.40;;;;;;;21.63;70.76;99600.30;1718641;82;21092;-53
2021/06/25 00:36:44;;;;;;;7.50;1.30;;;;;;;21.63;70.87;99601.66;1715451;82;21315;-55
2021/06/25 00:39:10;;;;;;;10.63;1.80;;;;;;;21.62;70.91;99594.45;1714782;82;21544;-55
2021/06/25 00:41:37;;;;;;;9.43;2.15;;;;;;;21.61;70.90;99594.95;1642687;85;21544;-54
2021/06/25 00:44:04;;;;;;;8.80;1.25;;;;;;;21.61;70.94;99589.48;1718214;81;21064;-53
2021/06/25 00:46:31;;;;;;;8.08;1.70;;;;;;;21.61;70.96;99582.63;1716993;82;21476;-54
2021/06/25 00:48:58;;;;;;;6.17;1.67;;;;;;;21.59;71.04;99576.97;1714682;82;21507;-54
2021/06/25 00:51:24;;;;;;;8.85;1.50;;;;;;;21.57;71.10;99575.74;1646105;85;21562;-54
2021/06/25 00:53:50;;;;;;;7.50;1.80;;;;;;;21.56;71.17;99573.14;1644810;85;21162;-53
2021/06/25 00:56:17;;;;;;;7.85;1.10;;;;;;;21.54;71.12;99576.02;1715965;82;21054;-53
2021/06/25 00:58:43;;;;;;;7.08;1.50;;;;;;;21.52;71.16;99580.81;1709850;82;21605;-54
2021/06/25 01:01:10;;;;;;;7.22;1.45;;;;;;;21.51;71.22;99575.84;1715069;82;21057;-53
2021/06/25 01:03:37;;;;;;;5.60;1.40;;;;;;;21.51;71.24;99573.61;1716326;82;21096;-53
2021/06/25 01:06:03;;;;;;;6.85;2.15;;;;;;;21.48;71.29;99569.78;1715584;82;21466;-53
2021/06/25 01:08:30;;;;;;;6.33;1.50;;;;;;;21.46;71.29;99565.81;1720757;82;21525;-53
2021/06/25 01:10:57;;;;;;;6.85;1.35;;;;;;;21.42;71.33;99557.55;1718863;82;21123;-55
2021/06/25 01:13:23;;;;;;;6.65;1.50;;;;;;;21.41;71.42;99562.67;1676125;83;21082;-55
2021/06/25 01:15:50;;;;;;;7.35;1.50;;;;;;;21.38;71.51;99567.05;1713753;82;21082;-55
2021/06/25 01:18:17;;;;;;;7.70;1.30;;;;;;;21.37;71.52;99565.33;1718895;82;21210;-55
2021/06/25 01:20:44;;;;;;;6.80;1.60;;;;;;;21.37;71.55;99567.20;1715988;82;21124;-55
2021/06/25 01:23:11;;;;;;;7.75;1.37;;;;;;;21.35;71.57;99565.97;1715192;82;21100;-56
2021/06/25 01:25:39;;;;;;;7.22;1.40;;;;;;;21.33;71.56;99558.94;1714906;81;21112;-55
2021/06/25 01:28:08;;;;;;;10.85;1.85;;;;;;;21.31;71.60;99560.45;1714999;82;21130;-55
2021/06/25 01:30:41;;;;;;;7.33;1.65;;;;;;;21.30;71.66;99568.30;1721904;82;21143;-55
2021/06/25 01:33:10;;;;;;;6.83;1.70;;;;;;;21.29;71.75;99571.17;1724709;82;21109;-54
2021/06/25 01:35:36;;;;;;;5.33;1.70;;;;;;;21.29;71.91;99568.44;1696241;83;20904;-55
2021/06/25 01:38:03;;;;;;;7.78;1.32;;;;;;;21.27;72.02;99565.84;1693914;83;20935;-55
2021/06/25 01:40:30;;;;;;;7.28;1.30;;;;;;;21.26;72.30;99569.61;1691683;83;20951;-55
2021/06/25 01:42:58;;;;;;;6.03;1.20;;;;;;;21.25;72.38;99568.39;1725875;82;21761;-55
2021/06/25 01:45:25;;;;;;;10.35;1.42;;;;;;;21.26;72.44;99569.61;1641734;84;20952;-54
2021/06/25 01:47:52;;;;;;;5.92;1.00;;;;;;;21.24;72.40;99566.16;1667033;85;20978;-55
2021/06/25 01:50:22;;;;;;;7.10;1.15;;;;;;;21.22;72.12;99569.53;1727816;82;20978;-55
2021/06/25 01:52:56;;;;;;;12.47;1.70;;;;;;;21.18;72.00;99570.81;1726888;82;20971;-55
2021/06/25 01:55:22;;;;;;;10.38;1.52;;;;;;;21.15;71.77;99572.47;1725729;82;21063;-54
2021/06/25 01:57:49;;;;;;;4.12;0.80;;;;;;;21.08;71.74;99557.14;1723881;82;20947;-55
2021/06/25 02:00:17;;;;;;;4.25;1.10;;;;;;;21.05;71.72;99556.05;1722012;82;21089;-55
2021/06/25 02:02:43;;;;;;;3.98;0.93;;;;;;;21.05;71.77;99556.55;1725419;82;20968;-56
2021/06/25 02:05:12;;;;;;;6.80;1.20;;;;;;;21.02;71.88;99550.85;1664656;83;21000;-56
2021/06/25 02:07:39;;;;;;;6.92;1.20;;;;;;;21.01;72.01;99553.23;1665302;85;22475;-55
2021/06/25 02:10:09;;;;;;;3.75;0.90;;;;;;;21.01;72.05;99555.12;1721659;82;20999;-54
2021/06/25 02:12:37;;;;;;;6.30;1.22;;;;;;;21.01;72.10;99555.97;1726821;82;20896;-55
2021/06/25 02:15:07;;;;;;;6.22;1.40;;;;;;;21.02;72.13;99559.56;1723764;82;20993;-54
2021/06/25 02:17:34;;;;;;;4.40;1.80;;;;;;;21.02;72.04;99565.91;1727991;82;21271;-55
2021/06/25 02:20:06;;;;;;;4.17;1.32;;;;;;;21.01;72.11;99572.91;1724903;82;21645;-54
2021/06/25 02:22:34;;;;;;;6.72;1.42;;;;;;;20.99;72.20;99573.05;1725917;82;20907;-55
2021/06/25 02:25:01;;;;;;;7.50;1.30;;;;;;;20.99;72.27;99575.79;1728526;82;21417;-55
2021/06/25 02:27:27;;;;;;;5.50;1.50;;;;;;;20.99;72.30;99585.37;1728786;82;20947;-56
2021/06/25 02:29:54;;;;;;;14.55;1.52;;;;;;;20.98;72.31;99574.06;1720730;82;21217;-54
2021/06/25 02:32:20;;;;;;;8.38;1.15;;;;;;;20.99;72.32;99586.73;1727794;82;21129;-55
2021/06/25 02:34:47;;;;;;;5.62;1.80;;;;;;;20.99;72.38;99584.50;1725826;82;21054;-54
2021/06/25 02:37:13;;;;;;;9.40;1.55;;;;;;;20.97;72.50;99584.64;1723129;82;21086;-54
2021/06/25 02:39:41;;;;;;;10.35;2.15;;;;;;;20.97;72.59;99584.64;1725230;82;21058;-54
2021/06/25 02:42:07;;;;;;;4.92;1.20;;;;;;;20.97;72.71;99581.91;1720408;82;21134;-55
2021/06/25 02:44:34;;;;;;;6.90;1.20;;;;;;;20.98;72.70;99589.11;1723629;82;21108;-55
2021/06/25 02:47:00;;;;;;;2.80;1.10;;;;;;;20.99;72.72;99587.23;1724262;82;21096;-56
2021/06/25 02:49:26;;;;;;;3.98;1.05;;;;;;;20.99;72.81;99579.03;1724870;82;21145;-55
2021/06/25 02:51:52;;;;;;;7.05;1.10;;;;;;;21.01;72.83;99590.70;1726877;82;21097;-54
2021/06/25 02:54:19;;;;;;;5.17;1.55;;;;;;;21.04;72.80;99587.16;1722507;82;22275;-54
2021/06/25 02:56:45;;;;;;;5.37;0.95;;;;;;;21.07;72.87;99586.88;1720397;82;21149;-56
2021/06/25 02:59:12;;;;;;;5.62;1.40;;;;;;;21.08;72.99;99583.14;1721949;82;21113;-55
2021/06/25 03:01:39;;;;;;;7.05;1.27;;;;;;;21.08;73.08;99580.40;1725504;82;21089;-55
2021/06/25 03:06:44;;;;;;;3.62;1.30;;;;;;;21.14;73.34;99571.59;1845792;75;28329;-54
2021/06/25 03:09:11;;;;;;;4.30;1.57;;;;;;;21.14;73.47;99581.17;1808057;77;21265;-54
2021/06/25 03:11:37;;;;;;;9.08;1.40;;;;;;;21.19;73.48;99580.77;1808352;77;21152;-54
2021/06/25 03:14:04;;;;;;;5.65;1.15;;;;;;;21.24;73.54;99584.45;1814251;77;21072;-54
2021/06/25 03:16:30;;;;;;;8.95;1.40;;;;;;;21.30;73.52;99585.22;1815427;77;21495;-54
2021/06/25 03:18:56;;;;;;;8.48;1.92;;;;;;;21.34;73.48;99580.70;1765979;78;21052;-54
2021/06/25 03:21:23;;;;;;;5.65;0.98;;;;;;;21.38;73.59;99578.01;1768505;78;20956;-53
2021/06/25 03:23:50;;;;;;;2.55;1.30;;;;;;;21.44;73.65;99569.70;1768271;78;21681;-54
2021/06/25 03:26:16;;;;;;;9.55;1.47;;;;;;;21.50;73.83;99574.61;1764657;78;21036;-54
2021/06/25 03:28:43;;;;;;;5.17;1.20;;;;;;;21.55;73.97;99572.28;1765900;78;21581;-54
2021/06/25 03:31:09;;;;;;;6.42;1.00;;;;;;;21.60;74.21;99574.09;1768201;78;21370;-53
2021/06/25 03:33:36;;;;;;;8.25;0.93;;;;;;;21.64;74.11;99573.27;1760800;78;21018;-54
2021/06/25 03:36:02;;;;;;;6.80;1.27;;;;;;;21.69;74.13;99566.86;1759865;78;21139;-54
2021/06/25 03:38:30;;;;;;;4.58;1.00;;;;;;;21.76;74.16;99563.88;1736211;78;21075;-54
2021/06/25 03:42:55;;;;;;;3.67;1.77;;;;;;;21.94;74.51;99560.70;1832244;76;28119;-57
2021/06/25 03:45:22;;;;;;;6.83;1.67;;;;;;;21.98;74.57;99560.78;1831631;76;21455;-54
2021/06/25 03:47:49;;;;;;;4.60;1.67;;;;;;;22.07;74.81;99558.50;1830068;76;21424;-54
2021/06/25 03:50:17;;;;;;;5.40;1.77;;;;;;;22.17;75.19;99555.72;1826359;76;20957;-55
2021/06/25 03:52:43;;;;;;;7.87;1.72;;;;;;;22.27;75.55;99552.42;1827939;76;21132;-54
2021/06/25 03:55:11;;;;;;;4.60;1.07;;;;;;;22.34;75.69;99545.30;1825613;76;20946;-55
2021/06/25 03:57:39;;;;;;;4.60;1.10;;;;;;;22.42;75.69;99548.64;1830116;76;21019;-55
2021/06/25 04:00:08;;;;;;;5.62;1.62;;;;;;;22.50;75.68;99542.73;1826825;76;21126;-55
2021/06/25 04:02:36;;;;;;;9.78;1.20;;;;;;;22.61;75.56;99534.30;1829548;77;21005;-55
2021/06/25 04:05:05;;;;;;;6.62;1.50;;;;;;;22.72;75.36;99529.06;1828064;76;21016;-56
2021/06/25 04:07:31;;;;;;;10.18;1.65;;;;;;;22.87;75.05;99525.32;1830732;76;21650;-56
2021/06/25 04:09:58;;;;;;;8.53;1.15;;;;;;;22.99;74.83;99523.53;1832623;76;21563;-56
2021/06/25 04:12:25;;;;;;;25.97;1.82;;;;;;;23.12;74.45;99527.25;1806025;76;21205;-56
2021/06/25 04:14:51;;;;;;;11.45;1.55;;;;;;;23.25;73.92;99525.45;1832184;76;21053;-56
2021/06/25 04:17:17;;;;;;;16.12;1.25;;;;;;;23.38;73.25;99523.16;1829383;76;21037;-56
2021/06/25 04:19:44;;;;;;;8.35;1.00;;;;;;;23.50;72.60;99521.89;1826836;76;21006;-57
2021/06/25 04:22:10;;;;;;;8.98;1.10;;;;;;;23.62;71.83;99525.23;1831346;76;21574;-57
2021/06/25 04:24:37;;;;;;;16.15;1.62;;;;;;;23.74;71.12;99510.17;1838277;76;21141;-57
2021/06/25 04:27:05;;;;;;;12.37;1.00;;;;;;;23.89;70.28;99511.31;1830292;76;21061;-57
2021/06/25 04:29:32;;;;;;;9.10;0.90;;;;;;;24.00;69.45;99510.12;1833133;76;21053;-56
2021/06/25 04:32:00;;;;;;;8.85;1.85;;;;;;;24.13;68.11;99515.53;1833821;76;21077;-55
2021/06/25 04:34:27;;;;;;;9.40;1.40;;;;;;;24.27;68.17;99508.55;1833979;76;20955;-56
2021/06/25 04:36:53;;;;;;;13.62;2.85;;;;;;;24.38;68.48;99510.14;1837580;76;21067;-56
2021/06/25 04:39:20;;;;;;;8.30;1.70;;;;;;;24.50;68.91;99514.28;1835696;76;21016;-55
2021/06/25 04:41:46;;;;;;;11.10;1.85;;;;;;;24.60;69.20;99505.37;1831833;77;21451;-56
2021/06/25 04:44:12;;;;;;;4.85;1.87;;;;;;;24.72;69.37;99503.16;1835604;76;20918;-56
2021/06/25 04:46:39;;;;;;;14.47;2.22;;;;;;;24.83;69.24;99502.84;1835110;76;20914;-56
2021/06/25 04:49:06;;;;;;;15.80;1.45;;;;;;;24.95;68.93;99506.99;1837048;76;21086;-56
2021/06/25 04:51:32;;;;;;;16.52;2.17;;;;;;;25.05;68.62;99508.20;1837233;76;20851;-57
2021/06/25 04:53:58;;;;;;;16.73;1.90;;;;;;;25.13;67.88;99506.30;1836146;76;21800;-56
2021/06/25 04:56:25;;;;;;;22.48;2.25;;;;;;;25.24;67.17;99507.34;1837096;76;20968;-60
2021/06/25 04:58:51;;;;;;;10.60;2.10;;;;;;;25.37;66.48;99506.80;1831628;76;21061;-60
2021/06/25 05:01:19;;;;;;;29.80;5.00;;;;;;;25.50;66.05;99509.03;1833457;76;21076;-62
2021/06/25 05:03:46;;;;;;;12.88;1.67;;;;;;;25.60;65.86;99505.61;1833536;76;21700;-60
2021/06/25 05:06:12;;;;;;;8.08;1.20;;;;;;;25.69;64.71;99501.77;1837363;76;21064;-63
2021/06/25 05:08:40;;;;;;;6.25;1.12;;;;;;;25.79;63.50;99496.91;1835703;76;21025;-57
2021/06/25 05:11:06;;;;;;;7.17;1.17;;;;;;;25.90;63.02;99498.44;1831526;76;21089;-61
2021/06/25 05:13:33;;;;;;;5.53;1.10;;;;;;;26.01;62.85;99507.71;1835774;76;21096;-57
2021/06/25 05:15:59;;;;;;;14.10;1.52;;;;;;;26.11;62.21;99504.75;1832150;76;21117;-61
2021/06/25 05:18:26;;;;;;;17.70;1.37;;;;;;;26.23;61.36;99511.05;1828887;76;21061;-58
2021/06/25 05:20:53;;;;;;;15.43;1.00;;;;;;;26.34;60.62;99515.34;1833166;76;20950;-60
2021/06/25 05:23:20;;;;;;;15.60;1.37;;;;;;;26.45;59.71;99526.52;1832572;76;21383;-58
2021/06/25 05:25:46;;;;;;;7.65;1.05;;;;;;;26.56;58.37;99527.46;1830240;76;21506;-61
2021/06/25 05:28:13;;;;;;;9.93;1.10;;;;;;;26.67;58.25;99529.81;1837790;76;21021;-60
2021/06/25 05:30:41;;;;;;;9.10;1.05;;;;;;;26.78;58.32;99528.03;1836820;76;21052;-58
2021/06/25 05:33:07;;;;;;;5.28;1.10;;;;;;;26.88;58.68;99530.55;1832952;76;21519;-57
2021/06/25 05:35:34;;;;;;;6.37;0.80;;;;;;;26.97;58.58;99529.45;1832480;76;21041;-58
2021/06/25 05:38:04;;;;;;;8.58;1.00;;;;;;;27.05;57.42;99524.73;1833635;76;21120;-58
2021/06/25 05:40:30;;;;;;;6.28;0.72;;;;;;;27.16;57.06;99530.87;1831676;76;21358;-57
2021/06/25 05:42:56;;;;;;;9.33;0.90;;;;;;;27.24;56.67;99534.42;1831324;76;21490;-56
2021/06/25 05:45:23;;;;;;;7.85;0.80;;;;;;;27.34;55.59;99531.41;1831428;76;21058;-57
2021/06/25 05:47:50;;;;;;;4.95;0.88;;;;;;;27.43;54.83;99532.53;1831940;76;21115;-56
2021/06/25 05:50:16;;;;;;;9.63;1.32;;;;;;;27.53;54.02;99536.41;1825900;76;21122;-57
2021/06/25 05:52:43;;;;;;;13.20;2.55;;;;;;;27.64;56.22;99540.14;1834021;76;21007;-56
2021/06/25 05:55:11;;;;;;;6.78;1.60;;;;;;;27.72;57.53;99537.81;1835310;76;21362;-56
2021/06/25 05:57:37;;;;;;;16.65;1.40;;;;;;;27.79;57.67;99547.07;1829281;76;21017;-56
2021/06/25 06:00:06;;;;;;;16.93;1.30;;;;;;;27.84;57.51;99551.50;1829938;76;21020;-56
2021/06/25 06:02:32;;;;;;;12.58;1.40;;;;;;;27.89;57.48;99546.27;1832032;76;21101;-56
2021/06/25 06:04:59;;;;;;;12.03;1.20;;;;;;;27.95;57.51;99550.17;1834642;76;21066;-57
2021/06/25 06:07:28;;;;;;;8.55;1.00;;;;;;;28.00;57.15;99550.45;1832421;76;21096;-56
2021/06/25 06:09:54;;;;;;;10.30;1.27;;;;;;;28.06;57.23;99548.33;1830353;76;21540;-57
2021/06/25 06:12:21;;;;;;;15.60;1.62;;;;;;;28.10;56.60;99550.51;1834578;76;21096;-56
2021/06/25 06:14:49;;;;;;;9.53;1.20;;;;;;;28.15;56.59;99548.05;1832802;76;21142;-57
2021/06/25 06:17:20;;;;;;;15.93;2.52;;;;;;;28.20;56.39;99553.02;1832480;76;21057;-56
2021/06/25 06:19:52;;;;;;;6.28;1.67;;;;;;;28.25;56.56;99561.59;1832312;76;21505;-59
2021/06/25 06:33:18;;;;;;;8.53;0.72;;;;;;;28.58;50.00;99561.50;1833791;76;21076;-55
2021/06/25 06:35:44;;;;;;;9.15;0.90;;;;;;;28.67;50.33;99572.50;1828834;76;21081;-56
2021/06/25 06:38:10;;;;;;;6.53;0.78;;;;;;;28.74;49.92;99571.52;1830056;76;21064;-56
2021/06/25 06:40:37;;;;;;;8.13;1.02;;;;;;;28.82;49.38;99574.73;1830105;76;21765;-55
2021/06/25 06:43:03;;;;;;;11.00;0.75;;;;;;;28.90;48.32;99578.77;1830044;76;21227;-56
2021/06/25 06:45:30;;;;;;;6.37;0.75;;;;;;;28.96;47.21;99578.83;1827621;76;21374;-56
2021/06/25 06:47:57;;;;;;;14.13;1.17;;;;;;;29.06;46.66;99582.67;1829894;76;21576;-56
2021/06/25 06:50:23;;;;;;;13.40;1.00;;;;;;;29.14;45.68;99572.84;1830997;76;21056;-55
2021/06/25 06:52:51;;;;;;;5.65;1.10;;;;;;;29.22;46.12;99575.48;1833902;76;21161;-56
2021/06/25 06:55:22;;;;;;;10.90;0.90;;;;;;;29.32;44.34;99577.93;1828175;76;21075;-56
2021/06/25 06:57:48;;;;;;;9.83;0.80;;;;;;;29.41;43.86;99580.07;1833278;76;20970;-55
2021/06/25 07:00:16;;;;;;;9.58;0.65;;;;;;;29.49;44.41;99578.02;1832021;76;21056;-54
2021/06/25 07:02:43;;;;;;;10.68;0.60;;;;;;;29.59;44.40;99591.55;1829698;76;21035;-54
2021/06/25 07:05:13;;;;;;;7.47;1.25;;;;;;;29.68;43.85;99589.82;1830719;76;21131;-56
2021/06/25 07:07:39;;;;;;;7.25;0.70;;;;;;;29.76;43.81;99579.63;1829152;76;21057;-58
2021/06/25 07:10:08;;;;;;;10.35;0.72;;;;;;;29.83;42.06;99573.08;1829461;76;21658;-58
2021/06/25 07:12:37;;;;;;;10.98;1.45;;;;;;;29.91;41.85;99581.24;1828239;76;21036;-57
2021/06/25 07:15:06;;;;;;;9.88;0.60;;;;;;;29.99;41.87;99574.70;1788105;78;21016;-57
2021/06/25 07:17:33;;;;;;;7.35;0.88;;;;;;;30.06;41.01;99578.38;1779725;79;21418;-56
2021/06/25 07:19:59;;;;;;;7.95;0.80;;;;;;;30.12;41.12;99575.31;1780618;78;21028;-57
2021/06/25 07:22:25;;;;;;;9.10;1.00;;;;;;;30.18;42.44;99581.45;1758890;80;21087;-59
2021/06/25 07:24:52;;;;;;;5.85;1.02;;;;;;;30.24;42.61;99575.94;1776808;79;21066;-58
2021/06/25 07:27:19;;;;;;;9.55;0.93;;;;;;;30.33;42.87;99580.79;1781860;79;22251;-58
2021/06/25 07:29:45;;;;;;;7.42;0.60;;;;;;;30.39;43.13;99565.55;1784284;78;21113;-56
2021/06/25 07:32:11;;;;;;;11.90;0.70;;;;;;;30.48;43.50;99571.78;1780729;79;21183;-57
2021/06/25 07:34:38;;;;;;;4.10;0.60;;;;;;;30.56;41.82;99568.00;1785563;78;21075;-57
2021/06/25 07:37:05;;;;;;;6.65;0.60;;;;;;;30.63;41.36;99566.11;1781108;79;20972;-56
2021/06/25 07:39:32;;;;;;;6.22;1.35;;;;;;;30.69;40.31;99563.38;1784926;78;21464;-58
2021/06/25 07:41:58;;;;;;;2.85;0.50;;;;;;;30.77;40.87;99563.20;1788579;78;21023;-58
2021/06/25 07:44:24;;;;;;;6.67;0.60;;;;;;;30.84;40.22;99564.59;1773977;79;20930;-59
2021/06/25 07:46:51;;;;;;;2.90;0.57;;;;;;;30.89;39.23;99563.42;1778611;79;20910;-57
2021/06/25 07:49:17;;;;;;;7.08;0.70;;;;;;;30.96;39.99;99557.91;1775822;80;21020;-58
2021/06/25 07:51:44;;;;;;;7.22;1.07;;;;;;;31.02;40.13;99555.14;1777070;79;21080;-59
2021/06/25 07:54:11;;;;;;;4.87;1.02;;;;;;;31.10;40.82;99548.02;1776068;80;22173;-57
2021/06/25 07:56:37;;;;;;;7.03;1.10;;;;;;;31.15;41.18;99551.55;1778886;79;21569;-58
2021/06/25 07:59:03;;;;;;;10.90;0.80;;;;;;;31.20;42.32;99548.48;1775312;79;20886;-57
2021/06/25 08:01:30;;;;;;;8.25;0.80;;;;;;;31.28;42.22;99558.53;1776336;79;20929;-58
2021/06/25 08:03:56;;;;;;;7.05;0.78;;;;;;;31.35;40.20;99551.05;1776525;80;21072;-57
2021/06/25 08:06:22;;;;;;;12.53;0.80;;;;;;;31.41;39.80;99561.31;1771831;79;22727;-58
2021/06/25 08:08:49;;;;;;;8.83;1.07;;;;;;;31.45;39.77;99565.41;1772049;79;21038;-56
2021/06/25 08:11:15;;;;;;;8.28;1.25;;;;;;;31.49;39.28;99566.67;1772530;79;21053;-57
2021/06/25 08:13:41;;;;;;;4.97;1.00;;;;;;;31.54;39.48;99568.30;1769715;80;21827;-57
2021/06/25 08:16:09;;;;;;;11.28;0.70;;;;;;;31.59;38.67;99571.28;1771138;80;21697;-57
2021/06/25 08:18:36;;;;;;;6.60;0.70;;;;;;;31.63;38.65;99572.28;1770001;79;21123;-57
2021/06/25 08:21:03;;;;;;;10.40;0.65;;;;;;;31.68;39.99;99577.52;1780093;79;20941;-58
2021/06/25 08:23:29;;;;;;;10.78;0.70;;;;;;;31.74;40.01;99585.00;1779017;79;21364;-56
2021/06/25 08:25:56;;;;;;;20.08;1.10;;;;;;;31.79;39.03;99587.16;1773353;79;22224;-59
2021/06/25 08:28:23;;;;;;;4.03;0.60;;;;;;;31.85;37.52;99577.94;1773855;79;21012;-59
2021/06/25 08:30:50;;;;;;;9.80;0.68;;;;;;;31.93;36.92;99583.28;1772888;79;22284;-58
2021/06/25 08:33:16;;;;;;;6.42;0.53;;;;;;;31.99;35.63;99576.84;1777088;79;21168;-58
2021/06/25 08:35:42;;;;;;;9.68;0.50;;;;;;;32.08;34.81;99577.48;1772618;79;21052;-58
2021/06/25 08:38:09;;;;;;;4.12;0.50;;;;;;;32.15;34.21;99575.56;1773733;79;21064;-56
2021/06/25 08:40:35;;;;;;;4.67;0.50;;;;;;;32.22;33.89;99566.15;1778401;79;21315;-56
2021/06/25 08:43:01;;;;;;;2.55;0.45;;;;;;;32.30;34.52;99571.48;1773117;79;21122;-58
2021/06/25 08:45:29;;;;;;;4.72;0.40;;;;;;;32.37;33.64;99572.84;1775470;80;21065;-57
2021/06/25 08:47:57;;;;;;;3.05;0.40;;;;;;;32.42;32.12;99567.46;1776781;79;21050;-59
2021/06/25 08:50:23;;;;;;;2.35;0.40;;;;;;;32.49;31.83;99566.93;1775420;80;21032;-58
2021/06/25 08:52:52;;;;;;;3.00;0.30;;;;;;;32.56;30.25;99566.36;1774732;80;21560;-58
2021/06/25 08:55:19;;;;;;;10.93;0.70;;;;;;;32.64;29.54;99563.33;1778311;79;21903;-56
2021/06/25 08:57:46;;;;;;;3.98;0.50;;;;;;;32.71;29.36;99558.28;1781575;80;21326;-57
2021/06/25 09:00:15;;;;;;;5.67;0.98;;;;;;;32.76;30.03;99559.31;1771379;80;21496;-55
2021/06/25 09:02:42;;;;;;;3.60;0.50;;;;;;;32.80;29.84;99559.74;1771086;79;21039;-58
2021/06/25 09:05:27;;;;;;;7.08;0.68;;;;;;;32.80;30.48;99559.74;1773524;79;21117;-57
2021/06/25 09:07:56;;;;;;;1.60;0.40;;;;;;;32.81;30.84;99552.56;1791294;78;21129;-58
2021/06/25 09:10:36;;;;;;;5.35;0.40;;;;;;;32.86;29.14;99551.34;1773846;79;21429;-56
2021/06/25 09:13:10;;;;;;;3.85;0.70;;;;;;;32.92;28.83;99553.80;1788793;78;21356;-59
2021/06/25 09:15:41;;;;;;;7.17;0.80;;;;;;;32.97;29.41;99553.97;1735508;80;21092;-55
2021/06/25 09:18:10;;;;;;;6.15;0.60;;;;;;;32.99;30.15;99549.03;1739889;80;21119;-58
2021/06/25 09:20:43;;;;;;;7.10;0.75;;;;;;;32.99;29.25;99546.24;1762041;80;21721;-58
2021/06/25 09:23:34;;;;;;;4.87;0.60;;;;;;;33.00;29.65;99546.56;1773828;79;22440;-61
2021/06/25 09:26:09;;;;;;;2.47;0.65;;;;;;;33.02;28.85;99541.59;1767276;79;21084;-58
2021/06/25 09:28:45;;;;;;;5.35;1.07;;;;;;;33.04;28.83;99548.66;1761442;80;20907;-58
2021/06/25 09:31:24;;;;;;;6.50;0.60;;;;;;;33.06;29.72;99547.91;1773609;79;21075;-56
2021/06/25 09:33:55;;;;;;;7.30;0.70;;;;;;;33.06;28.64;99557.67;1757925;79;22309;-57
2021/06/25 09:36:33;;;;;;;3.02;0.90;;;;;;;33.06;27.94;99554.88;1760714;80;21061;-56
2021/06/25 09:39:11;;;;;;;5.80;0.98;;;;;;;33.03;28.72;99549.73;1779577;79;20955;-57
2021/06/25 09:41:41;;;;;;;7.10;0.70;;;;;;;33.00;29.46;99550.21;1791646;78;21084;-58
2021/06/25 09:44:17;;;;;;;2.87;0.70;;;;;;;32.95;29.34;99550.00;1793030;78;21061;-57
2021/06/25 09:46:45;;;;;;;4.10;0.90;;;;;;;32.90;29.47;99547.58;1722448;80;21131;-58
2021/06/25 09:49:14;;;;;;;5.70;0.75;;;;;;;32.87;30.49;99552.20;1764799;79;20883;-57
2021/06/25 09:51:57;;;;;;;5.50;0.65;;;;;;;32.84;31.00;99546.52;1797225;78;21483;-58
2021/06/25 09:54:24;;;;;;;6.70;0.70;;;;;;;32.84;31.65;99547.05;1758116;80;21030;-59
2021/06/25 09:57:03;;;;;;;4.47;0.60;;;;;;;32.82;31.24;99545.91;1775583;79;21365;-59
2021/06/25 10:02:20;;;;;;;7.92;0.60;;;;;;;32.84;32.23;99542.88;1763050;80;21121;-60
2021/06/25 10:04:51;;;;;;;7.90;0.68;;;;;;;32.84;33.22;99538.16;1717914;78;21575;-58
2021/06/25 10:07:26;;;;;;;1.75;0.70;;;;;;;32.87;32.49;99534.08;1757116;79;21307;-60
2021/06/25 10:09:56;;;;;;;5.42;0.80;;;;;;;32.88;32.55;99535.25;1758343;80;21108;-59
2021/06/25 10:12:22;;;;;;;2.27;0.60;;;;;;;32.94;32.86;99527.92;1768778;79;22147;-59
2021/06/25 10:14:51;;;;;;;4.15;0.60;;;;;;;32.98;32.27;99525.88;1764829;80;20871;-58
2021/06/25 10:17:19;;;;;;;11.28;1.37;;;;;;;33.01;32.76;99519.83;1776562;79;20976;-58
2021/06/25 10:19:47;;;;;;;3.98;0.70;;;;;;;33.04;32.36;99522.72;1764191;79;20910;-58
2021/06/25 10:22:17;;;;;;;6.30;0.70;;;;;;;33.07;32.12;99520.88;1752297;80;21020;-59
2021/06/25 10:24:49;;;;;;;5.55;0.80;;;;;;;33.08;32.36;99523.98;1774045;79;21587;-59
2021/06/25 10:27:18;;;;;;;3.12;0.60;;;;;;;33.12;32.35;99524.38;1778544;79;20876;-60
2021/06/25 10:29:45;;;;;;;8.30;0.78;;;;;;;33.12;32.07;99518.27;1774858;80;20951;-60
2021/06/25 10:32:11;;;;;;;3.25;0.70;;;;;;;33.15;31.51;99516.97;1778981;79;21727;-59
2021/06/25 10:34:40;;;;;;;2.45;0.50;;;;;;;33.16;31.73;99520.93;1778116;79;21743;-60
2021/06/25 10:37:08;;;;;;;5.15;0.53;;;;;;;33.21;32.04;99523.92;1779264;79;21516;-59
2021/06/25 10:39:35;;;;;;;1.67;0.60;;;;;;;33.21;31.14;99520.23;1790874;78;21096;-57
2021/06/25 10:42:05;;;;;;;4.65;0.53;;;;;;;33.22;31.14;99520.59;1789610;78;21126;-57
2021/06/25 10:44:37;;;;;;;8.45;1.05;;;;;;;33.24;31.30;99525.41;1791169;78;21102;-57
2021/06/25 10:47:27;;;;;;;2.25;0.60;;;;;;;33.25;31.36;99523.80;1789143;78;21154;-58
2021/06/25 10:50:05;;;;;;;1.92;0.50;;;;;;;33.27;30.60;99527.73;1790725;78;21773;-57
2021/06/25 10:52:39;;;;;;;5.47;1.00;;;;;;;33.29;30.99;99521.39;1793613;78;21315;-56
2021/06/25 10:55:11;;;;;;;5.47;0.60;;;;;;;33.29;30.30;99518.06;1756109;80;21589;-58
2021/06/25 10:57:53;;;;;;;3.72;0.53;;;;;;;33.29;30.13;99515.81;1763654;79;21065;-58
2021/06/25 11:00:43;;;;;;;8.48;0.70;;;;;;;33.27;30.57;99513.24;1757656;80;21403;-58
2021/06/25 11:03:30;;;;;;;10.35;0.68;;;;;;;33.28;31.57;99506.59;1760594;79;21562;-56
2021/06/25 11:05:56;;;;;;;6.72;0.65;;;;;;;33.27;31.17;99504.02;1748528;78;21022;-58
2021/06/25 11:08:23;;;;;;;4.37;0.82;;;;;;;33.27;31.16;99504.02;1771135;79;21120;-57
2021/06/25 11:10:53;;;;;;;4.40;0.60;;;;;;;33.27;31.75;99506.80;1773023;79;21078;-56
2021/06/25 11:13:23;;;;;;;3.35;0.70;;;;;;;33.29;31.43;99503.26;1772192;79;21120;-56
2021/06/25 11:15:56;;;;;;;14.85;1.32;;;;;;;33.29;31.85;99503.26;1774804;79;21119;-60
2021/06/25 11:18:28;;;;;;;4.35;0.60;;;;;;;33.30;31.62;99494.67;1770103;79;21019;-57
2021/06/25 11:20:57;;;;;;;3.87;0.55;;;;;;;33.32;31.09;99493.05;1778846;79;20957;-58
2021/06/25 11:23:28;;;;;;;7.08;0.70;;;;;;;33.33;30.31;99490.58;1775327;79;21002;-55
2021/06/25 11:26:02;;;;;;;2.47;0.60;;;;;;;33.33;30.56;99491.97;1775306;79;20938;-58
2021/06/25 11:28:36;;;;;;;;;;;;;;;33.32;31.02;99496.70;1771586;79;21105;-57
2021/06/25 11:31:23;;;;;;;7.10;0.57;;;;;;;33.33;30.61;99498.95;1770702;79;20457;-57
2021/06/25 11:33:54;;;;;;;38.48;2.95;;;;;;;33.31;31.55;99498.31;1773030;79;21059;-59
2021/06/25 11:36:46;;;;;;;8.78;0.60;;;;;;;33.31;32.13;99496.38;1779049;79;21483;-57
2021/06/25 11:39:21;;;;;;;5.12;1.50;;;;;;;33.31;31.23;99495.53;1773245;79;20975;-57
2021/06/25 11:42:02;;;;;;;6.90;0.80;;;;;;;33.33;32.33;99497.55;1767129;79;22354;-57
2021/06/25 11:44:35;;;;;;;5.85;0.70;;;;;;;33.33;32.50;99488.65;1767637;79;21061;-56
2021/06/25 11:47:13;;;;;;;4.12;0.50;;;;;;;33.32;30.80;99495.30;1765007;80;21628;-59
2021/06/25 11:49:59;;;;;;;3.52;0.53;;;;;;;33.30;31.26;99484.91;1765814;80;21076;-58
2021/06/25 11:52:26;;;;;;;4.95;0.62;;;;;;;33.31;31.82;99489.95;1763165;80;21476;-57
2021/06/25 11:55:03;;;;;;;6.22;0.60;;;;;;;33.32;32.54;99486.08;1767566;80;21145;-59